createdAt,value
2017-12-31T00:00:35.888Z,9.2
2017-12-31T00:01:37.786Z,9.4
2017-12-31T00:02:39.681Z,9.4
2017-12-31T00:03:41.584Z,9.4
2017-12-31T00:04:43.452Z,9.4
2017-12-31T00:05:45.403Z,9.4
2017-12-31T00:06:47.310Z,9.3
2017-12-31T00:07:49.200Z,9.4
2017-12-31T00:08:51.149Z,9.2
2017-12-31T00:09:53.102Z,9.2
2017-12-31T00:10:55.003Z,9.3
2017-12-31T00:11:56.912Z,9.2
2017-12-31T00:12:58.810Z,9.3
2017-12-31T00:14:00.738Z,9.3
2017-12-31T00:15:02.634Z,9.2
2017-12-31T00:16:04.609Z,9.2
2017-12-31T00:17:06.469Z,9.4
2017-12-31T00:18:08.408Z,9.2
2017-12-31T00:19:10.277Z,9.2
2017-12-31T00:20:12.144Z,9.2
2017-12-31T00:21:14.076Z,9.3
2017-12-31T00:22:15.953Z,9.2
2017-12-31T00:23:17.880Z,9.2
2017-12-31T00:24:19.829Z,9.1
2017-12-31T00:25:21.754Z,9.2
2017-12-31T00:26:23.640Z,9.1
2017-12-31T00:27:25.617Z,9.2
2017-12-31T00:28:27.482Z,9.2
2017-12-31T00:29:29.464Z,9.2
2017-12-31T00:30:31.442Z,9.1
2017-12-31T00:31:33.280Z,9.2
2017-12-31T00:32:35.180Z,9.2
2017-12-31T00:33:37.052Z,9.2
2017-12-31T00:34:38.994Z,9.2
2017-12-31T00:35:40.932Z,9.1
2017-12-31T00:36:42.870Z,9.2
2017-12-31T00:37:44.847Z,9.0
2017-12-31T00:38:46.730Z,9.2
2017-12-31T00:39:48.678Z,9.1
2017-12-31T00:40:50.600Z,9.1
2017-12-31T00:41:52.468Z,9.1
2017-12-31T00:42:54.383Z,9.2
2017-12-31T00:43:56.279Z,9.1
2017-12-31T00:44:58.270Z,9.0
2017-12-31T00:46:00.176Z,9.0
2017-12-31T00:47:02.088Z,9.0
2017-12-31T00:48:04.013Z,8.9
2017-12-31T00:49:05.940Z,9.1
2017-12-31T00:50:07.834Z,9.0
2017-12-31T00:51:09.863Z,8.9
2017-12-31T00:52:11.744Z,9.0
2017-12-31T00:53:13.704Z,9.0
2017-12-31T00:54:15.703Z,8.9
2017-12-31T00:55:17.656Z,8.9
2017-12-31T00:56:19.606Z,8.9
2017-12-31T00:57:21.556Z,8.9
2017-12-31T00:58:23.518Z,8.9
2017-12-31T00:59:25.479Z,9.0
2017-12-31T01:00:27.425Z,8.9
2017-12-31T01:01:29.462Z,8.9
2017-12-31T01:02:31.389Z,8.9
2017-12-31T01:03:33.291Z,9.0
2017-12-31T01:04:35.257Z,8.9
2017-12-31T01:05:37.161Z,8.9
2017-12-31T01:06:39.127Z,8.9
2017-12-31T01:07:41.036Z,8.8
2017-12-31T01:08:42.996Z,8.8
2017-12-31T01:09:44.750Z,8.8
2017-12-31T01:10:46.708Z,8.9
2017-12-31T01:11:48.673Z,8.8
2017-12-31T01:12:50.642Z,8.8
2017-12-31T01:13:52.540Z,8.9
2017-12-31T01:14:54.452Z,8.8
2017-12-31T01:15:56.381Z,8.9
2017-12-31T01:16:58.275Z,8.8
2017-12-31T01:18:00.208Z,8.8
2017-12-31T01:19:02.146Z,8.7
2017-12-31T01:20:04.022Z,8.7
2017-12-31T01:21:05.968Z,8.6
2017-12-31T01:22:07.903Z,8.7
2017-12-31T01:23:09.868Z,8.7
2017-12-31T01:24:11.806Z,8.8
2017-12-31T01:25:13.660Z,8.7
2017-12-31T01:26:15.604Z,8.8
2017-12-31T01:27:17.521Z,8.8
2017-12-31T01:28:19.416Z,8.7
2017-12-31T01:29:21.307Z,8.7
2017-12-31T01:30:23.247Z,8.8
2017-12-31T01:31:25.198Z,8.8
2017-12-31T01:32:27.055Z,8.8
2017-12-31T01:33:29.147Z,8.8
2017-12-31T01:34:31.048Z,8.7
2017-12-31T01:35:32.909Z,8.8
2017-12-31T01:36:34.803Z,8.7
2017-12-31T01:37:36.711Z,8.8
2017-12-31T01:38:38.589Z,8.8
2017-12-31T01:39:40.575Z,8.7
2017-12-31T01:40:42.546Z,8.7
2017-12-31T01:41:44.460Z,8.7
2017-12-31T01:42:46.342Z,8.7
2017-12-31T01:43:48.294Z,8.7
2017-12-31T01:44:50.139Z,8.7
2017-12-31T01:45:52.047Z,8.7
2017-12-31T01:46:53.947Z,8.7
2017-12-31T01:47:55.824Z,8.7
2017-12-31T01:48:57.759Z,8.7
2017-12-31T01:49:59.766Z,8.7
2017-12-31T01:51:01.727Z,8.6
2017-12-31T01:52:03.716Z,8.6
2017-12-31T01:53:05.634Z,8.6
2017-12-31T01:54:07.595Z,8.6
2017-12-31T01:55:09.550Z,8.6
2017-12-31T01:56:11.486Z,8.6
2017-12-31T01:57:13.427Z,8.6
2017-12-31T01:58:15.298Z,8.6
2017-12-31T01:59:17.278Z,8.6
2017-12-31T02:00:19.259Z,8.6
2017-12-31T02:01:21.188Z,8.6
2017-12-31T02:02:23.111Z,8.7
2017-12-31T02:03:25.056Z,8.6
2017-12-31T02:04:26.902Z,8.6
2017-12-31T02:05:28.833Z,8.6
2017-12-31T02:06:30.773Z,8.6
2017-12-31T02:07:32.693Z,8.6
2017-12-31T02:08:34.648Z,8.5
2017-12-31T02:09:36.621Z,8.6
2017-12-31T02:10:38.510Z,8.6
2017-12-31T02:11:40.519Z,8.6
2017-12-31T02:12:42.435Z,8.5
2017-12-31T02:13:44.311Z,8.5
2017-12-31T02:14:46.229Z,8.5
2017-12-31T02:15:48.191Z,8.4
2017-12-31T02:16:50.060Z,8.3
2017-12-31T02:17:51.994Z,8.5
2017-12-31T02:18:53.952Z,8.5
2017-12-31T02:19:55.895Z,8.4
2017-12-31T02:20:57.769Z,8.4
2017-12-31T02:21:59.680Z,8.5
2017-12-31T02:23:01.553Z,8.4
2017-12-31T02:24:03.487Z,8.4
2017-12-31T02:25:05.356Z,8.5
2017-12-31T02:26:07.276Z,8.5
2017-12-31T02:27:09.170Z,8.5
2017-12-31T02:28:11.096Z,8.3
2017-12-31T02:29:13.008Z,8.4
2017-12-31T02:30:14.911Z,8.6
2017-12-31T02:31:16.791Z,8.4
2017-12-31T02:32:18.704Z,8.4
2017-12-31T02:33:20.603Z,8.5
2017-12-31T02:34:22.505Z,8.5
2017-12-31T02:35:24.395Z,8.5
2017-12-31T02:36:26.325Z,8.5
2017-12-31T02:37:28.283Z,8.5
2017-12-31T02:38:30.146Z,8.3
2017-12-31T02:39:32.127Z,8.5
2017-12-31T02:40:34.125Z,8.5
2017-12-31T02:41:36.083Z,8.5
2017-12-31T02:42:37.961Z,8.4
2017-12-31T02:43:39.917Z,8.4
2017-12-31T02:44:41.809Z,8.4
2017-12-31T02:45:43.682Z,8.5
2017-12-31T02:46:45.674Z,8.5
2017-12-31T02:47:47.611Z,8.5
2017-12-31T02:48:49.568Z,8.5
2017-12-31T02:49:51.469Z,8.5
2017-12-31T02:50:53.340Z,8.5
2017-12-31T02:51:55.263Z,8.6
2017-12-31T02:52:57.152Z,8.5
2017-12-31T02:53:59.056Z,8.5
2017-12-31T02:55:01.059Z,8.5
2017-12-31T03:01:05.402Z,8.3
2017-12-31T03:02:07.187Z,8.5
2017-12-31T03:03:08.937Z,8.3
2017-12-31T03:04:10.879Z,8.5
2017-12-31T03:05:12.807Z,8.5
2017-12-31T03:06:14.748Z,8.5
2017-12-31T03:07:16.674Z,8.5
2017-12-31T03:08:18.608Z,8.5
2017-12-31T03:09:20.481Z,8.4
2017-12-31T03:10:22.387Z,8.3
2017-12-31T03:11:24.311Z,8.5
2017-12-31T03:12:26.217Z,8.5
2017-12-31T03:13:28.164Z,8.5
2017-12-31T03:14:30.034Z,8.5
2017-12-31T03:15:31.979Z,8.3
2017-12-31T03:16:33.952Z,8.5
2017-12-31T03:17:35.918Z,8.4
2017-12-31T03:18:37.825Z,8.5
2017-12-31T03:19:39.681Z,8.5
2017-12-31T03:20:41.608Z,8.4
2017-12-31T03:21:43.582Z,8.5
2017-12-31T03:22:45.521Z,8.3
2017-12-31T03:23:47.547Z,8.5
2017-12-31T03:24:49.487Z,8.5
2017-12-31T03:25:51.410Z,8.5
2017-12-31T03:26:53.431Z,8.3
2017-12-31T03:27:55.313Z,8.4
2017-12-31T03:28:57.262Z,8.5
2017-12-31T03:29:59.187Z,8.4
2017-12-31T03:31:01.087Z,8.4
2017-12-31T03:32:03.032Z,8.5
2017-12-31T03:33:05.055Z,8.5
2017-12-31T03:34:07.038Z,8.6
2017-12-31T03:35:09.296Z,8.6
2017-12-31T03:36:11.175Z,8.5
2017-12-31T03:37:13.142Z,8.5
2017-12-31T03:38:15.230Z,8.5
2017-12-31T03:39:17.282Z,8.5
2017-12-31T03:40:19.209Z,8.5
2017-12-31T03:41:21.144Z,8.6
2017-12-31T03:42:23.102Z,8.5
2017-12-31T03:43:25.023Z,8.5
2017-12-31T03:44:26.982Z,8.5
2017-12-31T03:45:29.014Z,8.6
2017-12-31T03:46:30.984Z,8.5
2017-12-31T03:47:32.971Z,8.5
2017-12-31T03:48:34.933Z,8.5
2017-12-31T03:49:36.950Z,8.5
2017-12-31T03:50:39.043Z,8.6
2017-12-31T03:51:40.998Z,8.5
2017-12-31T03:52:42.989Z,8.5
2017-12-31T03:53:44.896Z,8.5
2017-12-31T03:54:46.760Z,8.5
2017-12-31T03:55:48.703Z,8.5
2017-12-31T03:56:50.629Z,8.5
2017-12-31T03:57:52.609Z,8.4
2017-12-31T03:58:54.587Z,8.5
2017-12-31T03:59:56.611Z,8.4
2017-12-31T04:00:58.585Z,8.5
2017-12-31T04:02:00.587Z,8.4
2017-12-31T04:03:02.639Z,8.5
2017-12-31T04:04:04.622Z,8.4
2017-12-31T04:05:06.742Z,8.4
2017-12-31T04:06:08.770Z,8.4
2017-12-31T04:07:10.722Z,8.4
2017-12-31T04:08:12.733Z,8.4
2017-12-31T04:09:14.930Z,8.4
2017-12-31T04:10:16.957Z,8.4
2017-12-31T04:11:18.911Z,8.4
2017-12-31T04:12:21.160Z,8.4
2017-12-31T04:13:23.365Z,8.4
2017-12-31T04:14:25.412Z,8.4
2017-12-31T04:15:27.431Z,8.4
2017-12-31T04:16:29.506Z,8.4
2017-12-31T04:17:31.567Z,8.4
2017-12-31T04:18:33.589Z,8.4
2017-12-31T04:19:35.701Z,8.4
2017-12-31T04:20:37.833Z,8.4
2017-12-31T04:21:40.019Z,8.4
2017-12-31T04:22:42.171Z,8.4
2017-12-31T04:23:44.175Z,8.4
2017-12-31T04:24:46.259Z,8.4
2017-12-31T04:25:48.613Z,8.5
2017-12-31T04:26:50.555Z,8.4
2017-12-31T04:27:52.781Z,8.4
2017-12-31T04:28:55.252Z,8.4
2017-12-31T04:29:57.845Z,8.4
2017-12-31T04:30:59.950Z,8.4
2017-12-31T04:32:02.591Z,8.4
2017-12-31T04:33:04.648Z,8.3
2017-12-31T04:34:06.894Z,8.4
2017-12-31T04:35:09.660Z,8.4
2017-12-31T04:36:11.744Z,8.4
2017-12-31T04:37:14.052Z,8.4
2017-12-31T04:38:16.020Z,8.4
2017-12-31T04:39:18.380Z,8.4
2017-12-31T04:40:20.624Z,8.4
2017-12-31T04:41:22.756Z,8.4
2017-12-31T04:42:24.724Z,8.3
2017-12-31T04:43:26.754Z,8.4
2017-12-31T04:44:28.958Z,8.5
2017-12-31T04:45:30.974Z,8.4
2017-12-31T04:46:33.014Z,8.4
2017-12-31T04:47:35.610Z,8.4
2017-12-31T04:48:37.706Z,8.4
2017-12-31T04:49:39.903Z,8.4
2017-12-31T04:50:42.230Z,8.4
2017-12-31T04:51:44.604Z,8.4
2017-12-31T04:52:47.383Z,8.5
2017-12-31T04:53:50.139Z,8.4
2017-12-31T04:54:51.975Z,8.7
2017-12-31T04:55:53.900Z,8.7
2017-12-31T04:56:55.966Z,8.9
2017-12-31T04:57:58.053Z,9.0
2017-12-31T04:58:59.967Z,9.1
2017-12-31T05:00:01.967Z,9.0
2017-12-31T05:01:03.921Z,9.1
2017-12-31T05:02:06.030Z,9.1
2017-12-31T05:03:08.278Z,9.1
2017-12-31T05:04:10.367Z,9.2
2017-12-31T05:05:12.360Z,9.3
2017-12-31T05:06:14.303Z,9.3
2017-12-31T05:07:16.382Z,9.4
2017-12-31T05:08:18.651Z,9.5
2017-12-31T05:09:20.916Z,9.6
2017-12-31T05:10:23.086Z,9.8
2017-12-31T05:11:25.049Z,9.9
2017-12-31T05:12:27.464Z,9.9
2017-12-31T05:13:29.943Z,9.9
2017-12-31T05:14:32.077Z,10.0
2017-12-31T05:15:34.452Z,10.1
2017-12-31T05:16:36.598Z,10.1
2017-12-31T05:17:39.333Z,10.1
2017-12-31T05:18:41.638Z,10.2
2017-12-31T05:19:43.897Z,10.2
2017-12-31T05:20:46.149Z,10.3
2017-12-31T05:21:48.301Z,10.3
2017-12-31T05:22:50.642Z,10.2
2017-12-31T05:23:52.799Z,10.2
2017-12-31T05:24:55.339Z,10.3
2017-12-31T05:25:57.541Z,10.4
2017-12-31T05:26:59.633Z,10.4
2017-12-31T05:28:02.470Z,10.3
2017-12-31T05:29:05.155Z,10.4
2017-12-31T05:30:07.256Z,10.3
2017-12-31T05:31:09.844Z,10.3
2017-12-31T05:32:12.226Z,10.3
2017-12-31T05:33:14.361Z,10.3
2017-12-31T05:34:16.838Z,10.3
2017-12-31T05:35:18.825Z,10.4
2017-12-31T05:36:20.807Z,10.4
2017-12-31T05:37:22.772Z,10.4
2017-12-31T05:38:24.781Z,10.3
2017-12-31T05:39:26.762Z,10.3
2017-12-31T05:40:28.888Z,10.3
2017-12-31T05:41:30.897Z,10.4
2017-12-31T05:42:33.022Z,10.4
2017-12-31T05:43:35.044Z,10.4
2017-12-31T05:44:37.787Z,10.4
2017-12-31T05:45:39.824Z,10.4
2017-12-31T05:46:42.680Z,10.4
2017-12-31T05:47:44.623Z,10.3
2017-12-31T05:48:46.566Z,10.4
2017-12-31T05:49:48.620Z,10.3
2017-12-31T05:50:50.891Z,10.3
2017-12-31T05:51:52.882Z,10.4
2017-12-31T05:52:54.877Z,10.5
2017-12-31T05:53:57.283Z,10.4
2017-12-31T05:54:59.333Z,10.4
2017-12-31T05:56:01.620Z,10.4
2017-12-31T05:57:04.189Z,10.4
2017-12-31T05:58:06.503Z,10.4
2017-12-31T05:59:08.857Z,10.3
2017-12-31T06:00:10.887Z,10.3
2017-12-31T06:01:12.833Z,10.4
2017-12-31T06:02:14.803Z,10.5
2017-12-31T06:03:17.671Z,10.4
2017-12-31T06:04:19.622Z,10.4
2017-12-31T06:05:21.581Z,10.4
2017-12-31T06:06:23.456Z,10.4
2017-12-31T06:07:25.431Z,10.5
2017-12-31T06:08:27.357Z,10.5
2017-12-31T06:09:29.256Z,10.5
2017-12-31T06:10:31.196Z,10.4
2017-12-31T06:11:33.101Z,10.4
2017-12-31T06:12:35.038Z,10.3
2017-12-31T06:13:36.985Z,10.4
2017-12-31T06:14:38.923Z,10.3
2017-12-31T06:15:40.937Z,10.4
2017-12-31T06:16:43.205Z,10.4
2017-12-31T06:17:45.490Z,10.4
2017-12-31T06:18:47.426Z,10.3
2017-12-31T06:19:49.441Z,10.5
2017-12-31T06:20:51.457Z,10.4
2017-12-31T06:21:53.425Z,10.4
2017-12-31T06:22:55.631Z,10.4
2017-12-31T06:23:57.622Z,10.4
2017-12-31T06:24:59.555Z,10.4
2017-12-31T06:26:01.443Z,10.4
2017-12-31T06:27:03.321Z,10.3
2017-12-31T06:28:05.277Z,10.3
2017-12-31T06:29:07.279Z,10.3
2017-12-31T06:30:09.200Z,10.4
2017-12-31T06:31:11.086Z,10.3
2017-12-31T06:32:13.188Z,10.3
2017-12-31T06:33:15.060Z,10.3
2017-12-31T06:34:17.223Z,10.3
2017-12-31T06:35:19.125Z,10.3
2017-12-31T06:36:21.067Z,10.3
2017-12-31T06:37:23.025Z,10.3
2017-12-31T06:38:24.909Z,10.4
2017-12-31T06:39:26.916Z,10.3
2017-12-31T06:40:28.828Z,10.4
2017-12-31T06:41:30.770Z,10.4
2017-12-31T06:42:32.718Z,10.3
2017-12-31T06:43:34.659Z,10.4
2017-12-31T06:44:36.560Z,10.4
2017-12-31T06:45:38.516Z,10.4
2017-12-31T06:46:40.458Z,10.4
2017-12-31T06:47:42.321Z,10.4
2017-12-31T06:48:44.247Z,10.4
2017-12-31T06:49:46.166Z,10.3
2017-12-31T06:50:48.216Z,10.3
2017-12-31T06:51:50.125Z,10.4
2017-12-31T06:52:52.072Z,10.4
2017-12-31T06:53:53.997Z,10.3
2017-12-31T06:54:55.919Z,10.4
2017-12-31T06:55:57.880Z,10.3
2017-12-31T07:01:55.628Z,10.3
2017-12-31T07:02:57.370Z,10.3
2017-12-31T07:03:59.128Z,10.4
2017-12-31T07:05:01.031Z,10.3
2017-12-31T07:06:02.993Z,10.3
2017-12-31T07:07:05.015Z,10.3
2017-12-31T07:08:06.939Z,10.3
2017-12-31T07:09:08.868Z,10.3
2017-12-31T07:10:10.856Z,10.3
2017-12-31T07:11:12.768Z,10.4
2017-12-31T07:12:14.626Z,10.4
2017-12-31T07:13:16.595Z,10.5
2017-12-31T07:14:18.537Z,10.5
2017-12-31T07:15:20.536Z,10.5
2017-12-31T07:16:22.495Z,10.5
2017-12-31T07:17:24.483Z,10.5
2017-12-31T07:18:26.450Z,10.5
2017-12-31T07:19:28.385Z,10.5
2017-12-31T07:20:30.393Z,10.5
2017-12-31T07:21:32.318Z,10.5
2017-12-31T07:22:34.241Z,10.5
2017-12-31T07:23:36.132Z,10.6
2017-12-31T07:24:38.118Z,10.4
2017-12-31T07:25:40.091Z,10.5
2017-12-31T07:26:42.012Z,10.5
2017-12-31T07:27:43.920Z,10.5
2017-12-31T07:28:45.805Z,10.5
2017-12-31T07:29:47.750Z,10.4
2017-12-31T07:30:49.656Z,10.5
2017-12-31T07:31:51.576Z,10.5
2017-12-31T07:32:53.509Z,10.6
2017-12-31T07:33:55.505Z,10.5
2017-12-31T07:34:57.457Z,10.5
2017-12-31T07:35:59.346Z,10.4
2017-12-31T07:37:01.373Z,10.4
2017-12-31T07:38:03.356Z,10.5
2017-12-31T07:39:05.329Z,10.4
2017-12-31T07:40:07.305Z,10.5
2017-12-31T07:41:09.232Z,10.5
2017-12-31T07:42:11.186Z,10.5
2017-12-31T07:43:13.062Z,10.5
2017-12-31T07:44:14.954Z,10.6
2017-12-31T07:45:16.863Z,10.5
2017-12-31T07:46:18.811Z,10.5
2017-12-31T07:47:20.731Z,10.5
2017-12-31T07:48:22.666Z,10.5
2017-12-31T07:49:24.592Z,10.4
2017-12-31T07:50:26.587Z,10.6
2017-12-31T07:51:28.532Z,10.6
2017-12-31T07:52:30.554Z,10.6
2017-12-31T07:53:32.493Z,10.6
2017-12-31T07:54:34.535Z,10.6
2017-12-31T07:55:36.506Z,10.5
2017-12-31T07:56:38.400Z,10.6
2017-12-31T07:57:40.439Z,10.5
2017-12-31T07:58:42.317Z,10.5
2017-12-31T07:59:44.211Z,10.6
2017-12-31T08:00:46.623Z,10.5
2017-12-31T08:01:48.928Z,10.5
2017-12-31T08:02:50.837Z,10.6
2017-12-31T08:03:52.787Z,10.5
2017-12-31T08:04:55.062Z,10.5
2017-12-31T08:05:57.045Z,10.5
2017-12-31T08:06:58.977Z,10.6
2017-12-31T08:08:00.981Z,10.6
2017-12-31T08:09:02.974Z,10.6
2017-12-31T08:10:04.942Z,10.6
2017-12-31T08:11:06.877Z,10.6
2017-12-31T08:12:08.891Z,10.6
2017-12-31T08:13:10.924Z,10.6
2017-12-31T08:14:12.862Z,10.6
2017-12-31T08:15:14.816Z,10.6
2017-12-31T08:16:16.786Z,10.6
2017-12-31T08:17:18.731Z,10.6
2017-12-31T08:18:20.696Z,10.5
2017-12-31T08:19:22.655Z,10.6
2017-12-31T08:20:24.570Z,10.6
2017-12-31T08:21:26.548Z,10.6
2017-12-31T08:22:28.462Z,10.6
2017-12-31T08:23:30.418Z,10.5
2017-12-31T08:24:32.259Z,10.6
2017-12-31T08:25:34.214Z,10.6
2017-12-31T08:26:36.100Z,10.5
2017-12-31T08:27:38.059Z,10.5
2017-12-31T08:28:40.054Z,10.6
2017-12-31T08:29:42.025Z,10.6
2017-12-31T08:30:43.941Z,10.6
2017-12-31T08:31:45.902Z,10.6
2017-12-31T08:32:47.790Z,10.5
2017-12-31T08:33:49.764Z,10.6
2017-12-31T08:34:51.751Z,10.6
2017-12-31T08:35:53.730Z,10.6
2017-12-31T08:36:55.689Z,10.6
2017-12-31T08:37:57.633Z,10.6
2017-12-31T08:38:59.564Z,10.6
2017-12-31T08:40:01.478Z,10.5
2017-12-31T08:41:03.301Z,10.5
2017-12-31T08:42:05.153Z,10.4
2017-12-31T08:43:07.028Z,10.5
2017-12-31T08:44:09.108Z,10.5
2017-12-31T08:45:11.163Z,10.5
2017-12-31T08:46:13.102Z,10.5
2017-12-31T08:47:15.068Z,10.5
2017-12-31T08:48:16.974Z,10.6
2017-12-31T08:49:18.981Z,10.6
2017-12-31T08:50:20.883Z,10.6
2017-12-31T08:51:22.815Z,10.6
2017-12-31T08:52:24.732Z,10.6
2017-12-31T08:53:26.619Z,10.6
2017-12-31T08:54:28.546Z,10.7
2017-12-31T08:55:30.462Z,10.7
2017-12-31T08:56:32.293Z,10.7
2017-12-31T08:57:34.145Z,10.7
2017-12-31T08:58:35.896Z,10.7
2017-12-31T08:59:37.736Z,10.6
2017-12-31T09:00:39.498Z,10.7
2017-12-31T09:01:41.292Z,10.7
2017-12-31T09:02:43.189Z,10.9
2017-12-31T09:03:44.991Z,10.8
2017-12-31T09:04:46.819Z,10.8
2017-12-31T09:05:48.727Z,10.8
2017-12-31T09:06:50.593Z,10.7
2017-12-31T09:07:52.526Z,10.8
2017-12-31T09:08:54.525Z,10.9
2017-12-31T09:09:56.437Z,10.9
2017-12-31T09:10:58.406Z,10.9
2017-12-31T09:12:00.216Z,10.9
2017-12-31T09:13:02.136Z,10.9
2017-12-31T09:14:04.739Z,10.9
2017-12-31T09:15:05.958Z,10.8
2017-12-31T09:16:07.845Z,10.8
2017-12-31T09:17:09.765Z,10.9
2017-12-31T09:18:11.590Z,11.0
2017-12-31T09:19:13.514Z,10.9
2017-12-31T09:20:15.376Z,10.9
2017-12-31T09:21:17.185Z,10.9
2017-12-31T09:22:19.019Z,10.9
2017-12-31T09:23:21.017Z,10.9
2017-12-31T09:24:22.958Z,10.9
2017-12-31T09:25:24.841Z,10.9
2017-12-31T09:26:27.418Z,10.9
2017-12-31T09:27:29.279Z,10.9
2017-12-31T09:28:32.711Z,10.8
2017-12-31T09:29:34.547Z,10.8
2017-12-31T09:30:36.323Z,10.9
2017-12-31T09:31:38.161Z,10.9
2017-12-31T09:32:40.023Z,10.9
2017-12-31T09:33:41.908Z,10.9
2017-12-31T09:34:44.355Z,10.8
2017-12-31T09:35:46.294Z,10.9
2017-12-31T09:36:48.188Z,10.8
2017-12-31T09:37:50.220Z,10.8
2017-12-31T09:38:52.326Z,10.8
2017-12-31T09:39:55.122Z,10.9
2017-12-31T09:40:58.254Z,10.8
2017-12-31T09:41:59.924Z,10.8
2017-12-31T09:43:01.823Z,10.8
2017-12-31T09:44:03.719Z,10.9
2017-12-31T09:45:05.500Z,10.9
2017-12-31T09:46:07.435Z,10.9
2017-12-31T09:47:09.249Z,10.9
2017-12-31T09:48:11.079Z,10.9
2017-12-31T09:49:12.996Z,10.9
2017-12-31T09:50:15.609Z,10.8
2017-12-31T09:51:17.509Z,10.9
2017-12-31T09:52:19.701Z,10.9
2017-12-31T09:53:21.731Z,10.8
2017-12-31T09:54:23.666Z,10.8
2017-12-31T09:55:25.680Z,10.8
2017-12-31T09:56:27.804Z,10.9
2017-12-31T09:57:29.789Z,10.8
2017-12-31T09:58:31.721Z,10.7
2017-12-31T09:59:33.649Z,10.5
2017-12-31T10:00:35.665Z,10.4
2017-12-31T10:01:37.681Z,10.3
2017-12-31T10:02:39.728Z,10.3
2017-12-31T10:03:41.744Z,10.2
2017-12-31T10:04:44.388Z,10.3
2017-12-31T10:05:46.387Z,10.4
2017-12-31T10:06:48.318Z,10.3
2017-12-31T10:07:50.281Z,10.3
2017-12-31T10:08:52.800Z,10.2
2017-12-31T10:09:54.725Z,10.2
2017-12-31T10:10:56.706Z,10.3
2017-12-31T10:11:58.656Z,10.2
2017-12-31T10:13:00.558Z,10.2
2017-12-31T10:14:02.501Z,10.3
2017-12-31T10:15:04.448Z,10.3
2017-12-31T10:16:06.406Z,10.2
2017-12-31T10:17:08.406Z,10.2
2017-12-31T10:18:11.099Z,10.3
2017-12-31T10:19:12.984Z,10.3
2017-12-31T10:20:17.703Z,10.3
2017-12-31T10:21:20.314Z,10.2
2017-12-31T10:22:22.273Z,10.2
2017-12-31T10:23:24.268Z,10.1
2017-12-31T10:24:26.223Z,10.2
2017-12-31T10:25:28.194Z,10.2
2017-12-31T10:26:30.100Z,10.2
2017-12-31T10:27:32.200Z,10.1
2017-12-31T10:28:34.583Z,10.3
2017-12-31T10:29:37.146Z,10.2
2017-12-31T10:30:39.013Z,10.1
2017-12-31T10:31:41.163Z,10.3
2017-12-31T10:32:43.098Z,10.3
2017-12-31T10:33:45.277Z,10.2
2017-12-31T10:34:47.848Z,10.2
2017-12-31T10:35:49.727Z,10.3
2017-12-31T10:36:51.673Z,10.2
2017-12-31T10:37:53.551Z,10.2
2017-12-31T10:38:55.448Z,10.2
2017-12-31T10:39:57.517Z,10.1
2017-12-31T10:40:59.284Z,10.2
2017-12-31T10:42:01.188Z,10.2
2017-12-31T10:43:03.108Z,10.1
2017-12-31T10:44:05.518Z,10.1
2017-12-31T10:45:07.405Z,10.2
2017-12-31T10:46:09.513Z,10.1
2017-12-31T10:47:11.330Z,10.2
2017-12-31T10:48:13.332Z,10.1
2017-12-31T10:49:15.480Z,10.1
2017-12-31T10:50:17.479Z,10.2
2017-12-31T10:51:25.400Z,10.2
2017-12-31T10:52:27.174Z,10.2
2017-12-31T10:53:29.503Z,10.2
2017-12-31T10:54:33.569Z,10.2
2017-12-31T10:55:35.367Z,10.3
2017-12-31T11:01:32.699Z,10.3
2017-12-31T11:02:34.521Z,10.2
2017-12-31T11:03:36.581Z,10.2
2017-12-31T11:04:38.627Z,10.2
2017-12-31T11:05:42.110Z,10.2
2017-12-31T11:06:43.890Z,10.2
2017-12-31T11:07:45.688Z,10.3
2017-12-31T11:08:47.622Z,10.2
2017-12-31T11:09:49.605Z,10.2
2017-12-31T11:10:52.853Z,10.2
2017-12-31T11:11:54.620Z,10.3
2017-12-31T11:12:56.453Z,10.3
2017-12-31T11:13:58.283Z,10.3
2017-12-31T11:15:00.296Z,10.3
2017-12-31T11:16:04.145Z,10.3
2017-12-31T11:17:06.094Z,10.3
2017-12-31T11:18:08.036Z,10.3
2017-12-31T11:19:10.240Z,10.3
2017-12-31T11:20:15.717Z,10.3
2017-12-31T11:21:17.892Z,10.4
2017-12-31T11:22:20.127Z,10.3
2017-12-31T11:23:24.459Z,10.5
2017-12-31T11:24:26.574Z,10.4
2017-12-31T11:25:28.794Z,10.5
2017-12-31T11:26:30.719Z,10.4
2017-12-31T11:27:36.242Z,10.5
2017-12-31T11:28:38.145Z,10.5
2017-12-31T11:29:40.243Z,10.4
2017-12-31T11:30:44.252Z,10.5
2017-12-31T11:31:46.205Z,10.5
2017-12-31T11:32:49.159Z,10.5
2017-12-31T11:33:52.845Z,10.6
2017-12-31T11:34:55.066Z,10.7
2017-12-31T11:35:57.242Z,10.7
2017-12-31T11:36:59.951Z,10.7
2017-12-31T11:38:04.173Z,10.9
2017-12-31T11:39:07.766Z,10.9
2017-12-31T11:40:10.576Z,10.8
2017-12-31T11:41:14.173Z,10.8
2017-12-31T11:42:16.159Z,10.8
2017-12-31T11:43:18.216Z,10.8
2017-12-31T11:44:23.506Z,10.9
2017-12-31T11:45:25.497Z,10.8
2017-12-31T11:46:27.516Z,10.8
2017-12-31T11:47:29.936Z,10.8
2017-12-31T11:48:34.452Z,10.9
2017-12-31T11:49:36.662Z,11.0
2017-12-31T11:50:38.618Z,11.0
2017-12-31T11:51:41.689Z,11.0
2017-12-31T11:52:44.165Z,10.9
2017-12-31T11:53:46.169Z,11.0
2017-12-31T11:54:48.165Z,11.0
2017-12-31T11:55:50.357Z,11.0
2017-12-31T11:56:54.234Z,10.9
2017-12-31T11:57:56.187Z,10.9
2017-12-31T11:58:58.206Z,10.9
2017-12-31T12:00:00.314Z,10.9
2017-12-31T12:01:05.385Z,10.9
2017-12-31T12:02:07.301Z,10.9
2017-12-31T12:03:09.281Z,10.9
2017-12-31T12:04:11.402Z,10.9
2017-12-31T12:05:13.356Z,11.0
2017-12-31T12:06:15.319Z,11.0
2017-12-31T12:07:17.273Z,10.9
2017-12-31T12:08:21.086Z,10.9
2017-12-31T12:09:23.164Z,10.9
2017-12-31T12:10:25.119Z,10.8
2017-12-31T12:11:26.921Z,10.9
2017-12-31T12:12:30.366Z,10.8
2017-12-31T12:13:34.701Z,10.8
2017-12-31T12:14:41.264Z,10.8
2017-12-31T12:15:43.895Z,10.8
2017-12-31T12:16:48.342Z,10.8
2017-12-31T12:17:50.344Z,10.9
2017-12-31T12:18:52.594Z,10.8
2017-12-31T12:19:55.321Z,10.9
2017-12-31T12:20:58.261Z,10.8
2017-12-31T12:22:00.243Z,10.9
2017-12-31T12:23:02.370Z,11.0
2017-12-31T12:24:04.790Z,10.9
2017-12-31T12:25:09.094Z,11.0
2017-12-31T12:26:11.178Z,11.0
2017-12-31T12:27:13.196Z,11.1
2017-12-31T12:28:18.066Z,11.2
2017-12-31T12:29:20.147Z,11.2
2017-12-31T12:30:22.450Z,11.1
2017-12-31T12:31:30.373Z,11.2
2017-12-31T12:32:32.498Z,11.3
2017-12-31T12:33:49.209Z,11.3
2017-12-31T12:34:51.181Z,11.3
2017-12-31T12:35:53.376Z,11.3
2017-12-31T12:36:57.318Z,11.3
2017-12-31T12:38:00.038Z,11.3
2017-12-31T12:39:02.503Z,11.3
2017-12-31T12:40:05.005Z,11.3
2017-12-31T12:41:07.881Z,11.3
2017-12-31T12:42:16.630Z,11.4
2017-12-31T12:43:18.466Z,11.4
2017-12-31T12:44:21.218Z,11.4
2017-12-31T12:45:24.250Z,11.4
2017-12-31T12:46:27.005Z,11.4
2017-12-31T12:47:29.896Z,11.4
2017-12-31T12:48:32.367Z,11.5
2017-12-31T12:49:35.060Z,11.4
2017-12-31T12:50:37.904Z,11.4
2017-12-31T12:51:40.556Z,11.4
2017-12-31T12:52:43.083Z,11.3
2017-12-31T12:53:45.778Z,11.2
2017-12-31T12:54:48.460Z,11.2
2017-12-31T12:55:51.081Z,11.2
2017-12-31T12:56:53.596Z,11.2
2017-12-31T12:57:56.293Z,11.1
2017-12-31T12:58:59.101Z,11.1
2017-12-31T13:00:01.980Z,11.1
2017-12-31T13:01:04.772Z,11.1
2017-12-31T13:02:07.434Z,11.1
2017-12-31T13:03:10.281Z,11.1
2017-12-31T13:04:12.931Z,11.1
2017-12-31T13:05:15.066Z,11.2
2017-12-31T13:06:17.563Z,11.2
2017-12-31T13:07:19.601Z,11.2
2017-12-31T13:08:21.839Z,11.2
2017-12-31T13:09:23.898Z,11.2
2017-12-31T13:10:26.053Z,11.2
2017-12-31T13:11:28.121Z,11.2
2017-12-31T13:12:30.121Z,11.1
2017-12-31T13:13:32.653Z,11.1
2017-12-31T13:14:34.879Z,11.4
2017-12-31T13:15:36.992Z,11.3
2017-12-31T13:16:39.000Z,11.4
2017-12-31T13:17:40.957Z,11.4
2017-12-31T13:18:42.950Z,11.4
2017-12-31T13:19:44.960Z,11.4
2017-12-31T13:20:46.889Z,11.4
2017-12-31T13:21:48.869Z,11.4
2017-12-31T13:22:50.876Z,11.5
2017-12-31T13:23:52.861Z,11.5
2017-12-31T13:24:55.053Z,11.5
2017-12-31T13:25:57.063Z,11.7
2017-12-31T13:26:59.114Z,11.7
2017-12-31T13:28:01.313Z,11.7
2017-12-31T13:29:03.265Z,11.7
2017-12-31T13:30:05.583Z,11.7
2017-12-31T13:31:08.095Z,11.7
2017-12-31T13:32:12.245Z,11.7
2017-12-31T13:33:14.482Z,11.6
2017-12-31T13:34:16.636Z,11.6
2017-12-31T13:35:19.755Z,11.6
2017-12-31T13:36:22.388Z,11.5
2017-12-31T13:37:24.239Z,11.6
2017-12-31T13:38:26.071Z,11.5
2017-12-31T13:39:28.769Z,11.5
2017-12-31T13:40:32.727Z,11.6
2017-12-31T13:41:35.064Z,11.6
2017-12-31T13:42:37.111Z,11.5
2017-12-31T13:43:39.266Z,11.6
2017-12-31T13:44:42.777Z,11.6
2017-12-31T13:45:44.855Z,11.6
2017-12-31T13:46:47.107Z,11.5
2017-12-31T13:47:49.302Z,11.6
2017-12-31T13:48:51.848Z,11.6
2017-12-31T13:49:54.235Z,11.5
2017-12-31T13:50:56.117Z,11.5
2017-12-31T13:51:58.577Z,11.5
2017-12-31T13:53:03.128Z,11.5
2017-12-31T13:54:06.895Z,11.6
2017-12-31T13:55:08.932Z,11.6
2017-12-31T13:56:10.861Z,11.5
2017-12-31T13:57:13.810Z,11.6
2017-12-31T13:58:16.635Z,11.7
2017-12-31T13:59:18.619Z,11.7
2017-12-31T14:00:20.572Z,11.6
2017-12-31T14:01:22.493Z,11.5
2017-12-31T14:02:24.465Z,11.6
2017-12-31T14:03:26.407Z,11.5
2017-12-31T14:04:28.228Z,11.5
2017-12-31T14:05:31.421Z,11.5
2017-12-31T14:06:33.247Z,11.6
2017-12-31T14:07:35.121Z,11.5
2017-12-31T14:08:36.971Z,11.6
2017-12-31T14:09:38.870Z,11.6
2017-12-31T14:10:40.806Z,11.7
2017-12-31T14:11:43.090Z,11.6
2017-12-31T14:12:45.695Z,11.6